sensor_id;sensor_type;location;lat;lon;timestamp;P1;durP1;ratioP1;P2;durP2;ratioP2
67737;SDS011;54534;43.612;1.572;2022-09-03T00:01:07;2.80;;;1.53;;
67737;SDS011;54534;43.612;1.572;2022-09-03T00:04:11;3.13;;;1.60;;
67737;SDS011;54534;43.612;1.572;2022-09-03T00:06:43;3.73;;;1.80;;
67737;SDS011;54534;43.612;1.572;2022-09-03T00:09:16;2.37;;;1.47;;
67737;SDS011;54534;43.612;1.572;2022-09-03T00:11:54;4.07;;;1.70;;
67737;SDS011;54534;43.612;1.572;2022-09-03T00:14:46;2.43;;;1.60;;
67737;SDS011;54534;43.612;1.572;2022-09-03T00:17:18;2.63;;;1.60;;
67737;SDS011;54534;43.612;1.572;2022-09-03T00:22:32;3.37;;;1.60;;
67737;SDS011;54534;43.612;1.572;2022-09-03T00:25:03;3.80;;;1.80;;
67737;SDS011;54534;43.612;1.572;2022-09-03T00:27:32;3.73;;;1.93;;
67737;SDS011;54534;43.612;1.572;2022-09-03T00:30:05;3.87;;;1.70;;
67737;SDS011;54534;43.612;1.572;2022-09-03T00:32:55;3.70;;;1.50;;
67737;SDS011;54534;43.612;1.572;2022-09-03T00:35:26;3.37;;;2.13;;
67737;SDS011;54534;43.612;1.572;2022-09-03T00:37:56;3.27;;;1.70;;
67737;SDS011;54534;43.612;1.572;2022-09-03T00:49:07;3.00;;;1.80;;
67737;SDS011;54534;43.612;1.572;2022-09-03T00:55:00;7.23;;;2.17;;
67737;SDS011;54534;43.612;1.572;2022-09-03T01:00:41;5.77;;;2.27;;
67737;SDS011;54534;43.612;1.572;2022-09-03T01:03:10;2.00;;;1.23;;
67737;SDS011;54534;43.612;1.572;2022-09-03T01:16:43;4.13;;;1.70;;
67737;SDS011;54534;43.612;1.572;2022-09-03T01:30:37;2.20;;;1.60;;
67737;SDS011;54534;43.612;1.572;2022-09-03T01:35:46;3.95;;;1.70;;
67737;SDS011;54534;43.612;1.572;2022-09-03T01:38:33;4.77;;;1.60;;
67737;SDS011;54534;43.612;1.572;2022-09-03T01:41:14;2.33;;;1.73;;
67737;SDS011;54534;43.612;1.572;2022-09-03T01:46:51;2.20;;;1.50;;
67737;SDS011;54534;43.612;1.572;2022-09-03T01:50:12;2.00;;;1.60;;
67737;SDS011;54534;43.612;1.572;2022-09-03T01:55:08;2.73;;;1.40;;
67737;SDS011;54534;43.612;1.572;2022-09-03T01:57:44;2.50;;;1.50;;
67737;SDS011;54534;43.612;1.572;2022-09-03T02:02:48;5.90;;;2.60;;
67737;SDS011;54534;43.612;1.572;2022-09-03T02:10:46;1.63;;;1.37;;
67737;SDS011;54534;43.612;1.572;2022-09-03T02:13:17;1.93;;;1.50;;
67737;SDS011;54534;43.612;1.572;2022-09-03T02:15:47;2.63;;;1.60;;
67737;SDS011;54534;43.612;1.572;2022-09-03T02:18:34;2.10;;;1.90;;
67737;SDS011;54534;43.612;1.572;2022-09-03T02:21:05;3.20;;;1.70;;
67737;SDS011;54534;43.612;1.572;2022-09-03T02:23:31;2.73;;;1.37;;
67737;SDS011;54534;43.612;1.572;2022-09-03T02:25:58;4.30;;;1.60;;
67737;SDS011;54534;43.612;1.572;2022-09-03T02:28:26;3.22;;;1.75;;
67737;SDS011;54534;43.612;1.572;2022-09-03T02:30:53;3.07;;;1.50;;
67737;SDS011;54534;43.612;1.572;2022-09-03T02:33:18;2.43;;;1.50;;
67737;SDS011;54534;43.612;1.572;2022-09-03T02:35:44;3.40;;;1.70;;
67737;SDS011;54534;43.612;1.572;2022-09-03T02:38:19;4.03;;;1.57;;
67737;SDS011;54534;43.612;1.572;2022-09-03T02:40:46;5.07;;;1.60;;
67737;SDS011;54534;43.612;1.572;2022-09-03T02:43:16;3.83;;;1.70;;
67737;SDS011;54534;43.612;1.572;2022-09-03T02:45:46;6.37;;;2.00;;
67737;SDS011;54534;43.612;1.572;2022-09-03T02:48:15;3.78;;;2.05;;
67737;SDS011;54534;43.612;1.572;2022-09-03T02:50:45;5.57;;;1.63;;
67737;SDS011;54534;43.612;1.572;2022-09-03T02:53:11;5.20;;;2.10;;
67737;SDS011;54534;43.612;1.572;2022-09-03T02:55:36;4.27;;;1.57;;
67737;SDS011;54534;43.612;1.572;2022-09-03T02:58:02;6.33;;;1.80;;
67737;SDS011;54534;43.612;1.572;2022-09-03T03:00:30;3.90;;;1.90;;
67737;SDS011;54534;43.612;1.572;2022-09-03T03:02:55;3.57;;;1.70;;
67737;SDS011;54534;43.612;1.572;2022-09-03T03:05:23;3.57;;;1.90;;
67737;SDS011;54534;43.612;1.572;2022-09-03T03:07:54;3.47;;;1.83;;
67737;SDS011;54534;43.612;1.572;2022-09-03T03:10:21;3.17;;;1.63;;
67737;SDS011;54534;43.612;1.572;2022-09-03T03:12:47;4.17;;;1.90;;
67737;SDS011;54534;43.612;1.572;2022-09-03T03:15:12;3.97;;;1.60;;
67737;SDS011;54534;43.612;1.572;2022-09-03T03:17:37;5.50;;;2.33;;
67737;SDS011;54534;43.612;1.572;2022-09-03T03:20:03;3.90;;;1.87;;
67737;SDS011;54534;43.612;1.572;2022-09-03T03:22:29;6.13;;;2.00;;
67737;SDS011;54534;43.612;1.572;2022-09-03T03:24:54;3.03;;;1.50;;
67737;SDS011;54534;43.612;1.572;2022-09-03T03:27:21;4.77;;;1.77;;
67737;SDS011;54534;43.612;1.572;2022-09-03T03:29:47;4.50;;;1.97;;
67737;SDS011;54534;43.612;1.572;2022-09-03T03:32:14;6.13;;;1.83;;
67737;SDS011;54534;43.612;1.572;2022-09-03T03:34:39;4.80;;;1.83;;
67737;SDS011;54534;43.612;1.572;2022-09-03T03:37:05;8.03;;;2.23;;
67737;SDS011;54534;43.612;1.572;2022-09-03T03:39:30;4.83;;;1.87;;
67737;SDS011;54534;43.612;1.572;2022-09-03T03:41:55;3.77;;;2.00;;
67737;SDS011;54534;43.612;1.572;2022-09-03T03:44:21;3.97;;;1.90;;
67737;SDS011;54534;43.612;1.572;2022-09-03T03:46:46;2.63;;;1.70;;
67737;SDS011;54534;43.612;1.572;2022-09-03T03:49:12;4.13;;;1.77;;
67737;SDS011;54534;43.612;1.572;2022-09-03T03:51:37;3.33;;;1.70;;
67737;SDS011;54534;43.612;1.572;2022-09-03T03:54:03;4.73;;;1.73;;
67737;SDS011;54534;43.612;1.572;2022-09-03T03:56:29;3.33;;;1.80;;
67737;SDS011;54534;43.612;1.572;2022-09-03T03:58:54;4.57;;;2.03;;
67737;SDS011;54534;43.612;1.572;2022-09-03T04:01:21;3.77;;;1.80;;
67737;SDS011;54534;43.612;1.572;2022-09-03T04:03:47;3.67;;;1.70;;
67737;SDS011;54534;43.612;1.572;2022-09-03T04:06:14;3.47;;;1.90;;
67737;SDS011;54534;43.612;1.572;2022-09-03T04:08:42;6.57;;;1.83;;
67737;SDS011;54534;43.612;1.572;2022-09-03T04:11:09;5.80;;;2.20;;
67737;SDS011;54534;43.612;1.572;2022-09-03T04:13:36;1.77;;;1.60;;
67737;SDS011;54534;43.612;1.572;2022-09-03T04:16:05;5.50;;;2.03;;
67737;SDS011;54534;43.612;1.572;2022-09-03T04:18:32;8.77;;;1.80;;
67737;SDS011;54534;43.612;1.572;2022-09-03T04:21:09;4.20;;;1.87;;
67737;SDS011;54534;43.612;1.572;2022-09-03T04:23:37;2.83;;;2.00;;
67737;SDS011;54534;43.612;1.572;2022-09-03T04:26:08;8.40;;;2.20;;
67737;SDS011;54534;43.612;1.572;2022-09-03T04:28:34;4.43;;;2.10;;
67737;SDS011;54534;43.612;1.572;2022-09-03T04:31:07;4.53;;;2.00;;
67737;SDS011;54534;43.612;1.572;2022-09-03T04:33:34;7.23;;;1.97;;
67737;SDS011;54534;43.612;1.572;2022-09-03T04:38:28;6.97;;;2.23;;
67737;SDS011;54534;43.612;1.572;2022-09-03T04:40:53;6.03;;;2.43;;
67737;SDS011;54534;43.612;1.572;2022-09-03T04:43:19;3.77;;;2.20;;
67737;SDS011;54534;43.612;1.572;2022-09-03T04:45:44;3.20;;;1.97;;
67737;SDS011;54534;43.612;1.572;2022-09-03T04:48:09;5.77;;;2.30;;
67737;SDS011;54534;43.612;1.572;2022-09-03T04:50:36;5.43;;;2.33;;
67737;SDS011;54534;43.612;1.572;2022-09-03T04:53:02;4.97;;;2.60;;
67737;SDS011;54534;43.612;1.572;2022-09-03T04:55:36;3.37;;;2.03;;
67737;SDS011;54534;43.612;1.572;2022-09-03T04:58:02;4.77;;;2.27;;
67737;SDS011;54534;43.612;1.572;2022-09-03T05:00:29;3.67;;;2.40;;
67737;SDS011;54534;43.612;1.572;2022-09-03T05:02:54;4.53;;;2.30;;
67737;SDS011;54534;43.612;1.572;2022-09-03T05:05:20;3.70;;;2.20;;
67737;SDS011;54534;43.612;1.572;2022-09-03T05:07:45;6.23;;;2.03;;
67737;SDS011;54534;43.612;1.572;2022-09-03T05:10:11;2.60;;;2.00;;
67737;SDS011;54534;43.612;1.572;2022-09-03T05:12:44;3.43;;;2.27;;
67737;SDS011;54534;43.612;1.572;2022-09-03T05:15:10;4.63;;;2.23;;
67737;SDS011;54534;43.612;1.572;2022-09-03T05:17:35;3.00;;;2.27;;
67737;SDS011;54534;43.612;1.572;2022-09-03T05:20:03;4.73;;;2.00;;
67737;SDS011;54534;43.612;1.572;2022-09-03T05:22:29;4.83;;;1.93;;
67737;SDS011;54534;43.612;1.572;2022-09-03T05:24:55;3.53;;;2.17;;
67737;SDS011;54534;43.612;1.572;2022-09-03T05:27:20;5.10;;;2.10;;
67737;SDS011;54534;43.612;1.572;2022-09-03T05:29:46;4.47;;;2.23;;
67737;SDS011;54534;43.612;1.572;2022-09-03T05:32:11;4.37;;;2.00;;
67737;SDS011;54534;43.612;1.572;2022-09-03T05:34:37;4.20;;;2.10;;
67737;SDS011;54534;43.612;1.572;2022-09-03T05:37:03;3.43;;;2.27;;
67737;SDS011;54534;43.612;1.572;2022-09-03T05:39:28;6.57;;;2.80;;
67737;SDS011;54534;43.612;1.572;2022-09-03T05:41:54;6.63;;;2.80;;
67737;SDS011;54534;43.612;1.572;2022-09-03T05:44:19;4.77;;;3.30;;
67737;SDS011;54534;43.612;1.572;2022-09-03T05:46:47;4.17;;;2.83;;
67737;SDS011;54534;43.612;1.572;2022-09-03T05:49:13;7.37;;;3.27;;
67737;SDS011;54534;43.612;1.572;2022-09-03T05:51:39;8.40;;;2.80;;
67737;SDS011;54534;43.612;1.572;2022-09-03T05:54:04;5.17;;;2.90;;
67737;SDS011;54534;43.612;1.572;2022-09-03T05:56:32;9.73;;;3.27;;
67737;SDS011;54534;43.612;1.572;2022-09-03T05:59:00;10.07;;;4.33;;
67737;SDS011;54534;43.612;1.572;2022-09-03T06:01:40;6.93;;;2.70;;
67737;SDS011;54534;43.612;1.572;2022-09-03T06:04:08;4.47;;;3.10;;
67737;SDS011;54534;43.612;1.572;2022-09-03T06:06:36;7.13;;;3.37;;
67737;SDS011;54534;43.612;1.572;2022-09-03T06:09:04;5.87;;;3.73;;
67737;SDS011;54534;43.612;1.572;2022-09-03T06:11:35;10.17;;;3.50;;
67737;SDS011;54534;43.612;1.572;2022-09-03T06:14:02;4.63;;;3.50;;
67737;SDS011;54534;43.612;1.572;2022-09-03T06:16:30;8.47;;;3.43;;
67737;SDS011;54534;43.612;1.572;2022-09-03T06:18:56;4.23;;;3.07;;
67737;SDS011;54534;43.612;1.572;2022-09-03T06:21:22;6.60;;;3.50;;
67737;SDS011;54534;43.612;1.572;2022-09-03T06:23:49;5.30;;;3.40;;
67737;SDS011;54534;43.612;1.572;2022-09-03T06:26:16;5.87;;;3.13;;
67737;SDS011;54534;43.612;1.572;2022-09-03T06:28:42;6.27;;;3.33;;
67737;SDS011;54534;43.612;1.572;2022-09-03T06:31:09;4.20;;;2.77;;
67737;SDS011;54534;43.612;1.572;2022-09-03T06:33:37;5.67;;;3.53;;
67737;SDS011;54534;43.612;1.572;2022-09-03T06:36:04;6.00;;;3.17;;
67737;SDS011;54534;43.612;1.572;2022-09-03T06:38:32;5.57;;;2.90;;
67737;SDS011;54534;43.612;1.572;2022-09-03T06:41:04;5.37;;;3.13;;
67737;SDS011;54534;43.612;1.572;2022-09-03T06:43:35;6.30;;;2.97;;
67737;SDS011;54534;43.612;1.572;2022-09-03T06:46:14;6.93;;;3.03;;
67737;SDS011;54534;43.612;1.572;2022-09-03T06:48:41;7.50;;;2.97;;
67737;SDS011;54534;43.612;1.572;2022-09-03T06:53:38;5.77;;;2.70;;
67737;SDS011;54534;43.612;1.572;2022-09-03T06:56:08;4.17;;;2.40;;
67737;SDS011;54534;43.612;1.572;2022-09-03T06:58:39;3.03;;;2.73;;
67737;SDS011;54534;43.612;1.572;2022-09-03T07:01:10;6.50;;;2.73;;
67737;SDS011;54534;43.612;1.572;2022-09-03T07:03:43;6.10;;;2.63;;
67737;SDS011;54534;43.612;1.572;2022-09-03T07:06:15;4.33;;;2.67;;
67737;SDS011;54534;43.612;1.572;2022-09-03T07:08:42;8.30;;;2.70;;
67737;SDS011;54534;43.612;1.572;2022-09-03T07:11:09;5.10;;;3.00;;
67737;SDS011;54534;43.612;1.572;2022-09-03T07:13:41;6.50;;;3.27;;
67737;SDS011;54534;43.612;1.572;2022-09-03T07:16:13;7.60;;;3.00;;
67737;SDS011;54534;43.612;1.572;2022-09-03T07:18:40;5.10;;;3.50;;
67737;SDS011;54534;43.612;1.572;2022-09-03T07:21:11;6.20;;;3.37;;
67737;SDS011;54534;43.612;1.572;2022-09-03T07:23:38;5.93;;;3.30;;
67737;SDS011;54534;43.612;1.572;2022-09-03T07:26:05;5.70;;;2.60;;
67737;SDS011;54534;43.612;1.572;2022-09-03T07:28:36;10.67;;;2.90;;
67737;SDS011;54534;43.612;1.572;2022-09-03T07:33:29;6.90;;;2.80;;
67737;SDS011;54534;43.612;1.572;2022-09-03T07:35:55;6.90;;;3.13;;
67737;SDS011;54534;43.612;1.572;2022-09-03T07:38:26;5.60;;;3.03;;
67737;SDS011;54534;43.612;1.572;2022-09-03T07:40:58;5.53;;;2.90;;
67737;SDS011;54534;43.612;1.572;2022-09-03T07:43:26;5.43;;;2.87;;
67737;SDS011;54534;43.612;1.572;2022-09-03T07:45:53;4.37;;;2.80;;
67737;SDS011;54534;43.612;1.572;2022-09-03T07:48:19;5.77;;;2.93;;
67737;SDS011;54534;43.612;1.572;2022-09-03T07:50:45;6.07;;;2.97;;
67737;SDS011;54534;43.612;1.572;2022-09-03T07:53:12;7.90;;;2.70;;
67737;SDS011;54534;43.612;1.572;2022-09-03T07:55:37;5.67;;;2.90;;
67737;SDS011;54534;43.612;1.572;2022-09-03T07:58:03;6.93;;;3.03;;
67737;SDS011;54534;43.612;1.572;2022-09-03T08:00:28;9.07;;;2.80;;
67737;SDS011;54534;43.612;1.572;2022-09-03T08:02:57;4.80;;;2.70;;
67737;SDS011;54534;43.612;1.572;2022-09-03T08:05:28;6.10;;;3.60;;
67737;SDS011;54534;43.612;1.572;2022-09-03T08:07:53;7.37;;;3.47;;
67737;SDS011;54534;43.612;1.572;2022-09-03T08:10:18;4.43;;;2.40;;
67737;SDS011;54534;43.612;1.572;2022-09-03T08:12:44;6.93;;;2.73;;
67737;SDS011;54534;43.612;1.572;2022-09-03T08:15:09;9.87;;;3.60;;
67737;SDS011;54534;43.612;1.572;2022-09-03T08:17:35;8.03;;;2.80;;
67737;SDS011;54534;43.612;1.572;2022-09-03T08:20:01;5.90;;;3.30;;
67737;SDS011;54534;43.612;1.572;2022-09-03T08:22:27;3.67;;;2.70;;
67737;SDS011;54534;43.612;1.572;2022-09-03T08:24:52;6.30;;;3.20;;
67737;SDS011;54534;43.612;1.572;2022-09-03T08:27:19;4.90;;;3.00;;
67737;SDS011;54534;43.612;1.572;2022-09-03T08:29:50;6.53;;;3.30;;
67737;SDS011;54534;43.612;1.572;2022-09-03T08:32:15;3.90;;;3.13;;
67737;SDS011;54534;43.612;1.572;2022-09-03T08:34:40;6.03;;;3.17;;
67737;SDS011;54534;43.612;1.572;2022-09-03T08:37:06;7.40;;;3.57;;
67737;SDS011;54534;43.612;1.572;2022-09-03T08:39:33;6.10;;;2.53;;
67737;SDS011;54534;43.612;1.572;2022-09-03T08:45:01;8.23;;;3.90;;
67737;SDS011;54534;43.612;1.572;2022-09-03T08:52:54;5.45;;;2.63;;
67737;SDS011;54534;43.612;1.572;2022-09-03T09:06:20;3.33;;;2.23;;
67737;SDS011;54534;43.612;1.572;2022-09-03T09:09:00;5.20;;;2.07;;
67737;SDS011;54534;43.612;1.572;2022-09-03T09:14:38;5.37;;;2.30;;
67737;SDS011;54534;43.612;1.572;2022-09-03T09:22:24;3.17;;;2.00;;
67737;SDS011;54534;43.612;1.572;2022-09-03T09:24:53;4.78;;;1.95;;
67737;SDS011;54534;43.612;1.572;2022-09-03T09:27:23;3.58;;;2.35;;
67737;SDS011;54534;43.612;1.572;2022-09-03T09:29:49;3.43;;;2.00;;
67737;SDS011;54534;43.612;1.572;2022-09-03T09:32:17;5.00;;;2.00;;
67737;SDS011;54534;43.612;1.572;2022-09-03T09:34:44;5.37;;;2.80;;
67737;SDS011;54534;43.612;1.572;2022-09-03T09:37:11;2.37;;;2.17;;
67737;SDS011;54534;43.612;1.572;2022-09-03T09:39:39;4.05;;;2.10;;
67737;SDS011;54534;43.612;1.572;2022-09-03T09:42:07;6.13;;;2.10;;
67737;SDS011;54534;43.612;1.572;2022-09-03T09:44:38;2.20;;;1.88;;
67737;SDS011;54534;43.612;1.572;2022-09-03T09:47:25;3.10;;;2.20;;
67737;SDS011;54534;43.612;1.572;2022-09-03T09:49:56;2.27;;;2.03;;
67737;SDS011;54534;43.612;1.572;2022-09-03T09:52:24;3.07;;;1.97;;
67737;SDS011;54534;43.612;1.572;2022-09-03T09:55:04;4.57;;;2.17;;
67737;SDS011;54534;43.612;1.572;2022-09-03T09:57:32;3.17;;;2.20;;
67737;SDS011;54534;43.612;1.572;2022-09-03T10:00:16;5.33;;;1.90;;
67737;SDS011;54534;43.612;1.572;2022-09-03T10:02:49;2.53;;;1.80;;
67737;SDS011;54534;43.612;1.572;2022-09-03T10:05:24;1.80;;;1.60;;
67737;SDS011;54534;43.612;1.572;2022-09-03T10:07:56;3.10;;;1.90;;
67737;SDS011;54534;43.612;1.572;2022-09-03T10:10:23;2.87;;;1.93;;
67737;SDS011;54534;43.612;1.572;2022-09-03T10:12:54;3.07;;;1.87;;
67737;SDS011;54534;43.612;1.572;2022-09-03T10:15:28;2.07;;;1.87;;
67737;SDS011;54534;43.612;1.572;2022-09-03T10:20:53;1.83;;;1.73;;
67737;SDS011;54534;43.612;1.572;2022-09-03T10:23:21;4.80;;;2.40;;
67737;SDS011;54534;43.612;1.572;2022-09-03T10:28:21;2.77;;;2.20;;
67737;SDS011;54534;43.612;1.572;2022-09-03T10:33:52;3.37;;;1.87;;
67737;SDS011;54534;43.612;1.572;2022-09-03T10:36:23;2.23;;;1.87;;
67737;SDS011;54534;43.612;1.572;2022-09-03T10:39:10;4.10;;;1.70;;
67737;SDS011;54534;43.612;1.572;2022-09-03T10:41:55;2.17;;;1.47;;
67737;SDS011;54534;43.612;1.572;2022-09-03T10:50:13;1.90;;;1.67;;
67737;SDS011;54534;43.612;1.572;2022-09-03T10:55:40;5.20;;;1.80;;
67737;SDS011;54534;43.612;1.572;2022-09-03T11:00:53;2.45;;;1.67;;
67737;SDS011;54534;43.612;1.572;2022-09-03T11:03:38;2.00;;;1.70;;
67737;SDS011;54534;43.612;1.572;2022-09-03T11:11:37;2.40;;;2.03;;
67737;SDS011;54534;43.612;1.572;2022-09-03T11:14:10;2.33;;;2.00;;
67737;SDS011;54534;43.612;1.572;2022-09-03T11:16:46;1.73;;;1.63;;
67737;SDS011;54534;43.612;1.572;2022-09-03T11:19:17;2.00;;;1.73;;
67737;SDS011;54534;43.612;1.572;2022-09-03T11:21:46;2.23;;;2.03;;
67737;SDS011;54534;43.612;1.572;2022-09-03T11:24:15;3.73;;;1.80;;
67737;SDS011;54534;43.612;1.572;2022-09-03T11:26:47;2.87;;;1.80;;
67737;SDS011;54534;43.612;1.572;2022-09-03T11:29:54;3.87;;;2.60;;
67737;SDS011;54534;43.612;1.572;2022-09-03T11:32:25;3.20;;;2.00;;
67737;SDS011;54534;43.612;1.572;2022-09-03T11:34:59;3.50;;;2.20;;
67737;SDS011;54534;43.612;1.572;2022-09-03T11:37:28;2.60;;;2.00;;
67737;SDS011;54534;43.612;1.572;2022-09-03T11:47:54;13.47;;;7.70;;
67737;SDS011;54534;43.612;1.572;2022-09-03T11:52:50;22.13;;;13.27;;
67737;SDS011;54534;43.612;1.572;2022-09-03T11:55:28;25.10;;;15.00;;
67737;SDS011;54534;43.612;1.572;2022-09-03T11:57:56;29.45;;;19.13;;
67737;SDS011;54534;43.612;1.572;2022-09-03T12:00:23;29.40;;;18.00;;
67737;SDS011;54534;43.612;1.572;2022-09-03T12:02:49;34.37;;;20.93;;
67737;SDS011;54534;43.612;1.572;2022-09-03T12:18:44;21.80;;;14.13;;
67737;SDS011;54534;43.612;1.572;2022-09-03T12:23:41;24.60;;;14.83;;
67737;SDS011;54534;43.612;1.572;2022-09-03T12:26:10;23.87;;;14.63;;
67737;SDS011;54534;43.612;1.572;2022-09-03T12:28:41;22.07;;;13.63;;
67737;SDS011;54534;43.612;1.572;2022-09-03T12:31:26;11.55;;;8.18;;
67737;SDS011;54534;43.612;1.572;2022-09-03T12:36:48;6.27;;;4.40;;
67737;SDS011;54534;43.612;1.572;2022-09-03T12:39:16;3.87;;;3.00;;
67737;SDS011;54534;43.612;1.572;2022-09-03T12:42:17;6.10;;;3.57;;
67737;SDS011;54534;43.612;1.572;2022-09-03T12:44:39;4.93;;;2.57;;
67737;SDS011;54534;43.612;1.572;2022-09-03T12:47:09;4.20;;;2.33;;
67737;SDS011;54534;43.612;1.572;2022-09-03T12:49:41;4.20;;;2.53;;
67737;SDS011;54534;43.612;1.572;2022-09-03T12:52:19;3.77;;;2.47;;
67737;SDS011;54534;43.612;1.572;2022-09-03T12:54:47;2.57;;;2.30;;
67737;SDS011;54534;43.612;1.572;2022-09-03T12:57:29;3.33;;;2.40;;
67737;SDS011;54534;43.612;1.572;2022-09-03T13:00:08;5.10;;;2.33;;
67737;SDS011;54534;43.612;1.572;2022-09-03T13:02:39;2.90;;;2.27;;
67737;SDS011;54534;43.612;1.572;2022-09-03T13:05:16;4.33;;;2.57;;
67737;SDS011;54534;43.612;1.572;2022-09-03T13:07:45;2.90;;;2.17;;
67737;SDS011;54534;43.612;1.572;2022-09-03T13:10:59;2.33;;;2.07;;
67737;SDS011;54534;43.612;1.572;2022-09-03T13:13:16;5.37;;;2.60;;
67737;SDS011;54534;43.612;1.572;2022-09-03T13:18:43;4.27;;;2.30;;
67737;SDS011;54534;43.612;1.572;2022-09-03T13:21:14;5.40;;;2.33;;
67737;SDS011;54534;43.612;1.572;2022-09-03T13:26:20;4.57;;;2.93;;
67737;SDS011;54534;43.612;1.572;2022-09-03T13:29:18;3.13;;;2.17;;
67737;SDS011;54534;43.612;1.572;2022-09-03T13:31:48;4.87;;;2.27;;
67737;SDS011;54534;43.612;1.572;2022-09-03T13:34:21;7.00;;;2.40;;
67737;SDS011;54534;43.612;1.572;2022-09-03T13:39:56;5.97;;;2.70;;
67737;SDS011;54534;43.612;1.572;2022-09-03T13:42:32;7.05;;;2.50;;
67737;SDS011;54534;43.612;1.572;2022-09-03T13:47:55;3.07;;;2.13;;
67737;SDS011;54534;43.612;1.572;2022-09-03T13:50:48;2.40;;;2.20;;
67737;SDS011;54534;43.612;1.572;2022-09-03T13:56:03;6.40;;;2.47;;
67737;SDS011;54534;43.612;1.572;2022-09-03T13:58:47;5.35;;;2.72;;
67737;SDS011;54534;43.612;1.572;2022-09-03T14:04:24;3.70;;;2.57;;
67737;SDS011;54534;43.612;1.572;2022-09-03T14:06:59;4.53;;;2.60;;
67737;SDS011;54534;43.612;1.572;2022-09-03T14:09:34;4.73;;;2.43;;
67737;SDS011;54534;43.612;1.572;2022-09-03T14:12:14;2.70;;;2.47;;
67737;SDS011;54534;43.612;1.572;2022-09-03T14:17:11;4.17;;;2.80;;
67737;SDS011;54534;43.612;1.572;2022-09-03T14:19:47;2.97;;;2.47;;
67737;SDS011;54534;43.612;1.572;2022-09-03T14:25:30;4.27;;;2.63;;
67737;SDS011;54534;43.612;1.572;2022-09-03T14:39:46;3.57;;;2.50;;
67737;SDS011;54534;43.612;1.572;2022-09-03T14:58:53;3.47;;;2.00;;
67737;SDS011;54534;43.612;1.572;2022-09-03T15:01:31;5.17;;;2.50;;
67737;SDS011;54534;43.612;1.572;2022-09-03T15:09:39;4.07;;;2.20;;
67737;SDS011;54534;43.612;1.572;2022-09-03T15:12:24;6.43;;;2.30;;
67737;SDS011;54534;43.612;1.572;2022-09-03T15:14:58;3.90;;;2.47;;
67737;SDS011;54534;43.612;1.572;2022-09-03T15:31:14;3.23;;;2.50;;
67737;SDS011;54534;43.612;1.572;2022-09-03T15:36:38;3.27;;;2.27;;
67737;SDS011;54534;43.612;1.572;2022-09-03T15:42:06;4.20;;;2.00;;
67737;SDS011;54534;43.612;1.572;2022-09-03T15:44:42;3.10;;;2.17;;
67737;SDS011;54534;43.612;1.572;2022-09-03T15:47:14;2.97;;;2.07;;
67737;SDS011;54534;43.612;1.572;2022-09-03T15:53:18;3.53;;;2.20;;
67737;SDS011;54534;43.612;1.572;2022-09-03T15:56:06;2.93;;;1.90;;
67737;SDS011;54534;43.612;1.572;2022-09-03T15:58:36;2.20;;;2.00;;
67737;SDS011;54534;43.612;1.572;2022-09-03T16:01:19;2.07;;;1.87;;
67737;SDS011;54534;43.612;1.572;2022-09-03T16:04:01;4.47;;;2.17;;
67737;SDS011;54534;43.612;1.572;2022-09-03T16:15:11;3.60;;;1.87;;
67737;SDS011;54534;43.612;1.572;2022-09-03T16:20:18;2.97;;;2.00;;
67737;SDS011;54534;43.612;1.572;2022-09-03T16:23:01;2.90;;;1.93;;
67737;SDS011;54534;43.612;1.572;2022-09-03T16:25:51;2.13;;;1.93;;
67737;SDS011;54534;43.612;1.572;2022-09-03T16:28:19;5.57;;;2.00;;
67737;SDS011;54534;43.612;1.572;2022-09-03T16:31:05;1.80;;;1.60;;
67737;SDS011;54534;43.612;1.572;2022-09-03T16:33:47;1.90;;;1.73;;
67737;SDS011;54534;43.612;1.572;2022-09-03T16:50:06;4.30;;;1.90;;
67737;SDS011;54534;43.612;1.572;2022-09-03T16:55:59;2.10;;;1.90;;
67737;SDS011;54534;43.612;1.572;2022-09-03T17:08:49;1.70;;;1.60;;
67737;SDS011;54534;43.612;1.572;2022-09-03T17:14:17;2.10;;;1.90;;
67737;SDS011;54534;43.612;1.572;2022-09-03T17:23:29;2.20;;;2.00;;
67737;SDS011;54534;43.612;1.572;2022-09-03T17:25:37;1.57;;;1.47;;
67737;SDS011;54534;43.612;1.572;2022-09-03T17:33:10;1.80;;;1.60;;
67737;SDS011;54534;43.612;1.572;2022-09-03T17:36:18;1.93;;;1.83;;
67737;SDS011;54534;43.612;1.572;2022-09-03T17:43:49;1.87;;;1.60;;
67737;SDS011;54534;43.612;1.572;2022-09-03T17:46:42;1.52;;;1.42;;
67737;SDS011;54534;43.612;1.572;2022-09-03T17:49:10;1.80;;;1.70;;
67737;SDS011;54534;43.612;1.572;2022-09-03T17:52:06;1.80;;;1.70;;
67737;SDS011;54534;43.612;1.572;2022-09-03T17:54:43;1.67;;;1.50;;
67737;SDS011;54534;43.612;1.572;2022-09-03T18:07:43;1.67;;;1.57;;
67737;SDS011;54534;43.612;1.572;2022-09-03T18:10:16;2.43;;;1.90;;
67737;SDS011;54534;43.612;1.572;2022-09-03T18:16:14;2.90;;;1.50;;
67737;SDS011;54534;43.612;1.572;2022-09-03T18:18:51;1.90;;;1.63;;
67737;SDS011;54534;43.612;1.572;2022-09-03T18:26:59;2.73;;;2.17;;
67737;SDS011;54534;43.612;1.572;2022-09-03T18:33:00;1.53;;;1.43;;
67737;SDS011;54534;43.612;1.572;2022-09-03T18:35:45;2.67;;;1.60;;
67737;SDS011;54534;43.612;1.572;2022-09-03T18:38:30;2.60;;;1.80;;
67737;SDS011;54534;43.612;1.572;2022-09-03T18:47:01;1.87;;;1.70;;
67737;SDS011;54534;43.612;1.572;2022-09-03T18:56:18;1.53;;;1.40;;
67737;SDS011;54534;43.612;1.572;2022-09-03T19:02:28;1.93;;;1.60;;
67737;SDS011;54534;43.612;1.572;2022-09-03T19:05:26;2.47;;;1.67;;
67737;SDS011;54534;43.612;1.572;2022-09-03T19:08:36;1.60;;;1.50;;
67737;SDS011;54534;43.612;1.572;2022-09-03T19:11:33;1.33;;;1.33;;
67737;SDS011;54534;43.612;1.572;2022-09-03T19:14:35;1.67;;;1.57;;
67737;SDS011;54534;43.612;1.572;2022-09-03T19:17:32;1.70;;;1.60;;
67737;SDS011;54534;43.612;1.572;2022-09-03T19:20:31;2.83;;;2.00;;
67737;SDS011;54534;43.612;1.572;2022-09-03T19:23:18;2.13;;;1.87;;
67737;SDS011;54534;43.612;1.572;2022-09-03T19:33:08;2.50;;;2.30;;
67737;SDS011;54534;43.612;1.572;2022-09-03T19:36:02;2.70;;;2.30;;
67737;SDS011;54534;43.612;1.572;2022-09-03T19:38:59;2.27;;;2.07;;
67737;SDS011;54534;43.612;1.572;2022-09-03T19:48:40;2.50;;;2.30;;
67737;SDS011;54534;43.612;1.572;2022-09-03T19:52:22;3.00;;;2.40;;
67737;SDS011;54534;43.612;1.572;2022-09-03T19:55:17;2.70;;;2.47;;
67737;SDS011;54534;43.612;1.572;2022-09-03T19:58:07;2.90;;;2.63;;
67737;SDS011;54534;43.612;1.572;2022-09-03T20:00:52;3.33;;;2.70;;
67737;SDS011;54534;43.612;1.572;2022-09-03T20:03:36;2.70;;;2.20;;
67737;SDS011;54534;43.612;1.572;2022-09-03T20:06:20;2.60;;;2.40;;
67737;SDS011;54534;43.612;1.572;2022-09-03T20:09:10;2.50;;;2.30;;
67737;SDS011;54534;43.612;1.572;2022-09-03T20:11:59;3.20;;;2.37;;
67737;SDS011;54534;43.612;1.572;2022-09-03T20:14:29;2.30;;;2.10;;
67737;SDS011;54534;43.612;1.572;2022-09-03T20:17:06;2.60;;;2.40;;
67737;SDS011;54534;43.612;1.572;2022-09-03T20:34:12;2.70;;;2.40;;
67737;SDS011;54534;43.612;1.572;2022-09-03T20:36:56;2.83;;;2.60;;
67737;SDS011;54534;43.612;1.572;2022-09-03T20:44:50;2.57;;;2.37;;
67737;SDS011;54534;43.612;1.572;2022-09-03T20:50:23;2.90;;;2.60;;
67737;SDS011;54534;43.612;1.572;2022-09-03T20:55:54;3.67;;;2.47;;
67737;SDS011;54534;43.612;1.572;2022-09-03T21:00:51;3.40;;;2.97;;
67737;SDS011;54534;43.612;1.572;2022-09-03T21:06:26;2.43;;;2.23;;
67737;SDS011;54534;43.612;1.572;2022-09-03T21:09:10;4.00;;;2.27;;
67737;SDS011;54534;43.612;1.572;2022-09-03T21:12:12;2.50;;;2.30;;
67737;SDS011;54534;43.612;1.572;2022-09-03T21:17:48;3.00;;;2.50;;
67737;SDS011;54534;43.612;1.572;2022-09-03T21:23:23;2.67;;;2.45;;
67737;SDS011;54534;43.612;1.572;2022-09-03T21:28:38;2.63;;;2.43;;
67737;SDS011;54534;43.612;1.572;2022-09-03T21:31:24;2.37;;;2.17;;
67737;SDS011;54534;43.612;1.572;2022-09-03T21:33:59;2.57;;;2.37;;
67737;SDS011;54534;43.612;1.572;2022-09-03T21:36:33;4.83;;;2.50;;
67737;SDS011;54534;43.612;1.572;2022-09-03T21:39:12;2.50;;;2.30;;